Tabuleiro, Brazil
Current Conditions -  °F | °C
As of 4:00 PM on Friday 28 Nov 2014 (Local Time) from SBJF Reporting Station
Broken Clouds Broken Clouds  
Wind Chill: 68°   Ceiling: 3000
Heat Index: 68°   Visibility: 6mi
Dew Point: 66°   Wind: 12mph
Humidity: 94%   Direction: 180°S
Pressure: 30.03"   Gusts: NA
Location:  21.36°S, 43.25°W
Report Text: SBJF 281800Z 18010KT 9999 SCT010 BKN030 20/19 Q1017
Loading
Personal Weather Stations






























Interactive Weather Map New forecast layout! Learn more

10-Day Weather Forecast

Advertisements
Track Severe Weather on mobile